x

South Santa Rosa Is. Ca (46069) Wave Buoy

9:50 - Wed 23rd Jul 2014 All times are PDT. -7 hours from GMT.

  • Sig Wave height 5.6ft
  • Peak Period 6s
  • Average Period 5s
  • Wind
    27mph, 31mph gusts
  • Sea Temp 67°f
  • Air Temp 67°f
  • Sea Pressure 1016.7mb
  • South Santa Rosa Is. Ca
  • South Santa Rosa Is. Ca

More Historic Weather Station data

Upgrade to MSW Pro to gain access to the past 30 days of data for over 8000 Wavebouys and Weather Stations around the globe.

Join Pro

Comparision Forecast

View Surf forecast
   
mer. 07/23 9:50 5.5ft 6s 5s 27 31 mph 1016.7mb 67f 67f
8:50 5.5ft 6s 5s 27 34 mph 1016.8mb 67f 67f
7:50 5.5ft 6s 5s 27 34 mph 1016.4mb 67f 66f
6:50 5.5ft 6s 5s 29 34 mph 1016.2mb 67f 66f
5:50 6ft 6s 5s 27 34 mph 1016mb 67f 66f
4:50 6ft 6s 5s 25 29 mph 1016.1mb 67f 66f
3:50 6ft 6s 5s 27 29 mph 1015.9mb 68f 67f
2:50 6ft 6s 5s 27 31 mph 1016.2mb 68f 67f
1:50 6ft 6s 5s 27 31 mph 1016.6mb 68f 67f
12:50 5.5ft 5s 5s 27 34 mph 1016.5mb 68f 67f
mar. 07/22 11:50 5ft 5s 5s 25 31 mph 1016.8mb 68f 67f
10:50 5ft 5s 5s 25 29 mph 1016.9mb 68f 68f
9:50 5ft 5s 5s 25 31 mph 1016.9mb 69f 68f
8:50 5ft 5s 5s 25 27 mph 1016.7mb 69f 68f
7:50 4.5ft 5s 5s 22 29 mph 1016.5mb 69f 68f
6:50 4.5ft 5s 5s 22 27 mph 1016.7mb 69f 68f
5:50 4ft 11s 5s 20 22 mph 1017.2mb 69f 68f
3:50 4ft 11s 5s 18 20 mph 1017.9mb 69f 67f
2:50 3.5ft 10s 5s 20 22 mph 1018.2mb 69f 67f
1:50 3.5ft 11s 5s 20 22 mph 1018.5mb 69f 67f
12:50 3.5ft 10s 5s 16 18 mph 1019mb 69f 67f
11:50 3.5ft 11s 5s 16 20 mph 1018.9mb 69f 67f
10:50 4ft 11s 5s 18 20 mph 1018.6mb 69f 67f
9:50 3.5ft 10s 5s 18 22 mph 1018.4mb 69f 67f
8:50 3.5ft 10s 5s 18 20 mph 1018.1mb 69f 67f
7:50 4ft 11s 5s 18 20 mph 1017.5mb 69f 67f
6:50 4ft 11s 5s 18 22 mph 1017mb 69f 67f
5:50 4ft 11s 5s 16 20 mph 1016.8mb 69f 67f
4:50 3.5ft 11s 5s 18 20 mph 1016.6mb 69f 67f
3:50 3.5ft 12s 5s 18 20 mph 1016.8mb 69f 67f
2:50 3.5ft 11s 5s 16 20 mph 1016.8mb 69f 67f
1:50 3.5ft 8s 5s 16 20 mph 1016.7mb 69f 67f
12:50 3.5ft 12s 5s 18 20 mph 1016.8mb 69f 67f
lun. 07/21 11:50 3.5ft 11s 5s 16 18 mph 1016.6mb 70f 67f
10:50 3ft 12s 5s 13 18 mph 1016.8mb 70f 66f
9:50 3ft 8s 5s 16 20 mph 1016.4mb 70f 66f
8:50 3ft 11s 5s 13 16 mph 1015.9mb 70f 66f
7:50 3ft 12s 5s 13 16 mph 1015.9mb 70f 67f
6:50 3ft 7s 6s 13 16 mph 1016.3mb 71f 67f
5:50 2.5ft 8s 6s 11 13 mph 1016.5mb 71f 68f
4:50 3.5ft 8s 6s 11 13 mph 1017.1mb 71f 67f
3:50 3ft 8s 7s 11 13 mph 1017.7mb 71f 67f
2:50 3ft 12s 8s 9 11 mph 1017.7mb 71f 67f
1:50 2.5ft 8s 8s 9 11 mph 1018.2mb 71f 68f
12:50 3ft 8s 8s 4 7 mph 1018.3mb 71f 69f
11:50 2.5ft 8s 8s 4 7 mph 1018.2mb 71f 68f
10:50 2.5ft 12s 8s 2 4 mph 1018.3mb 70f 68f
9:50 2.5ft 13s 8s 2
mph
1018mb 70f 68f
8:50 2.5ft 12s 7s 7
mph
1017.5mb 69f 67f
7:50 2.5ft 12s 7s 11
mph
1017.3mb 69f 67f
6:50 3ft 12s 7s 7 9 mph 1016.5mb 69f 67f
5:50 3ft 12s 7s 4 7 mph 1015.9mb 69f 67f
4:50 2.5ft 8s 7s 7 9 mph 1015.6mb 69f 67f
3:50 3.5ft 8s 7s 9 11 mph 1015.5mb 69f 67f
2:50 3.5ft 8s 7s 7 9 mph 1015.7mb 69f 67f
1:50 3.5ft 9s 7s 9 11 mph 1015.7mb 70f 67f
12:50 3ft 9s 7s 9 11 mph 1015.8mb 70f 67f
dim. 07/20 11:50 3ft 9s 7s 7 9 mph 1015.8mb 70f 67f
10:50 3.5ft 8s 7s 9 11 mph 1015.9mb 70f 67f
9:50 3ft 13s 8s 9
mph
1015.7mb 70f 67f
8:50 3.5ft 13s 8s 9 11 mph 1015.2mb 70f 67f
7:50 3.5ft 9s 8s 9
mph
1014.9mb 71f 67f
6:50 3.5ft 8s 8s 9
mph
1014.7mb 71f 67f
5:50 3.5ft 10s 7s 7 9 mph 1014.8mb 71f 67f
4:50 3.5ft 9s 7s 9
mph
1015mb 71f 67f
3:50 4.5ft 9s 8s 7 9 mph 1015.4mb 71f 68f
2:50 3.5ft 8s 8s 9
mph
1016mb 71f 67f
1:50 3.5ft 9s 8s 4 9 mph 1016.4mb 71f 68f
12:50 3.5ft 9s 8s 4
mph
1016.7mb 71f 67f
11:50 3.5ft 8s 8s 4 7 mph 1016.6mb 71f 67f
10:50 3.5ft 13s 8s 4 7 mph 1016.4mb 70f 67f
9:50 3.5ft 8s 8s 4 7 mph 1016.1mb 70f 67f
8:50 3.5ft 14s 8s 2 4 mph 1015.9mb 69f 67f
7:50 3.5ft 13s 8s 4 7 mph 1015.6mb 69f 66f
6:50 3.5ft 14s 8s 7 9 mph 1015mb 69f 66f
5:50 3.5ft 9s 8s 7 9 mph 1014.4mb 69f 66f
4:50 3.5ft 8s 8s 7 9 mph 1014mb 69f 66f
3:50 3.5ft 9s 7s 7 9 mph 1013.7mb 69f 67f
2:50 3.5ft 9s 7s 7 9 mph 1013.8mb 69f 67f
1:50 4ft 9s 7s 9 11 mph 1014.1mb 69f 67f
12:50 4ft 9s 8s 9 11 mph 1014.4mb 70f 67f
sam. 07/19 11:50 3.5ft 9s 7s 9 11 mph 1014.7mb 70f 67f
10:50 3.5ft 14s 7s 11 16 mph 1014.6mb 70f 67f
9:50 3.5ft 8s 7s 11 13 mph 1014.3mb 70f 67f
7:50 3.5ft 9s 7s 11 13 mph 1013.9mb 70f 67f
6:50 4.5ft 8s 7s 9 13 mph 1013.9mb 70f 67f